sensor_id;sensor_type;location;lat;lon;timestamp;pressure;altitude;pressure_sealevel;temperature;humidity
10474;BME280;5284;50.446;7.904;2023-03-13T00:00:07;97618.78;;;8.52;100.00
10474;BME280;5284;50.446;7.904;2023-03-13T00:05:12;97609.13;;;8.42;100.00
10474;BME280;5284;50.446;7.904;2023-03-13T00:10:17;97600.59;;;8.48;100.00
10474;BME280;5284;50.446;7.904;2023-03-13T00:15:20;97597.53;;;8.43;100.00
10474;BME280;5284;50.446;7.904;2023-03-13T00:20:23;97584.50;;;8.49;100.00
10474;BME280;5284;50.446;7.904;2023-03-13T00:25:27;97573.16;;;8.47;100.00
10474;BME280;5284;50.446;7.904;2023-03-13T00:30:30;97552.47;;;8.60;100.00
10474;BME280;5284;50.446;7.904;2023-03-13T00:35:33;97550.06;;;8.67;100.00
10474;BME280;5284;50.446;7.904;2023-03-13T00:40:37;97544.06;;;8.65;100.00
10474;BME280;5284;50.446;7.904;2023-03-13T00:45:40;97532.59;;;8.74;100.00
10474;BME280;5284;50.446;7.904;2023-03-13T00:50:42;97525.19;;;8.68;100.00
10474;BME280;5284;50.446;7.904;2023-03-13T00:55:54;97520.59;;;8.60;100.00
10474;BME280;5284;50.446;7.904;2023-03-13T01:01:05;97508.09;;;8.70;100.00
10474;BME280;5284;50.446;7.904;2023-03-13T01:06:11;97504.75;;;8.78;100.00
10474;BME280;5284;50.446;7.904;2023-03-13T01:11:18;97493.16;;;8.69;100.00
10474;BME280;5284;50.446;7.904;2023-03-13T01:16:21;97485.88;;;8.71;100.00
10474;BME280;5284;50.446;7.904;2023-03-13T01:21:25;97471.63;;;8.63;100.00
10474;BME280;5284;50.446;7.904;2023-03-13T01:26:31;97455.53;;;8.64;100.00
10474;BME280;5284;50.446;7.904;2023-03-13T01:31:34;97449.53;;;8.62;100.00
10474;BME280;5284;50.446;7.904;2023-03-13T01:36:40;97436.28;;;8.53;100.00
10474;BME280;5284;50.446;7.904;2023-03-13T01:41:45;97436.28;;;8.53;100.00
10474;BME280;5284;50.446;7.904;2023-03-13T01:46:48;97419.50;;;8.52;100.00
10474;BME280;5284;50.446;7.904;2023-03-13T01:51:57;97414.47;;;8.49;100.00
10474;BME280;5284;50.446;7.904;2023-03-13T01:57:05;97401.63;;;8.45;100.00
10474;BME280;5284;50.446;7.904;2023-03-13T02:02:14;97377.72;;;8.45;100.00
10474;BME280;5284;50.446;7.904;2023-03-13T02:07:20;97370.88;;;8.42;100.00
10474;BME280;5284;50.446;7.904;2023-03-13T02:12:30;97358.56;;;8.41;100.00
10474;BME280;5284;50.446;7.904;2023-03-13T02:17:35;97355.53;;;8.36;100.00
10474;BME280;5284;50.446;7.904;2023-03-13T02:22:43;97341.25;;;8.37;100.00
10474;BME280;5284;50.446;7.904;2023-03-13T02:27:56;97344.75;;;8.38;100.00
10474;BME280;5284;50.446;7.904;2023-03-13T02:33:01;97337.09;;;8.35;100.00
10474;BME280;5284;50.446;7.904;2023-03-13T02:38:07;97331.78;;;8.35;100.00
10474;BME280;5284;50.446;7.904;2023-03-13T02:43:15;97312.63;;;8.31;100.00
10474;BME280;5284;50.446;7.904;2023-03-13T02:48:29;97291.09;;;8.34;100.00
10474;BME280;5284;50.446;7.904;2023-03-13T02:53:34;97291.38;;;8.31;100.00
10474;BME280;5284;50.446;7.904;2023-03-13T02:58:42;97294.03;;;8.31;100.00
10474;BME280;5284;50.446;7.904;2023-03-13T03:03:54;97280.06;;;8.29;100.00
10474;BME280;5284;50.446;7.904;2023-03-13T03:08:58;97279.34;;;8.37;100.00
10474;BME280;5284;50.446;7.904;2023-03-13T03:14:05;97280.84;;;8.39;100.00
10474;BME280;5284;50.446;7.904;2023-03-13T03:19:12;97276.78;;;8.45;100.00
10474;BME280;5284;50.446;7.904;2023-03-13T03:24:16;97277.47;;;8.47;100.00
10474;BME280;5284;50.446;7.904;2023-03-13T03:29:20;97271.84;;;8.50;100.00
10474;BME280;5284;50.446;7.904;2023-03-13T03:34:26;97263.59;;;8.53;100.00
10474;BME280;5284;50.446;7.904;2023-03-13T03:39:30;97257.44;;;8.52;100.00
10474;BME280;5284;50.446;7.904;2023-03-13T03:44:34;97246.09;;;8.50;100.00
10474;BME280;5284;50.446;7.904;2023-03-13T03:49:38;97243.19;;;8.53;100.00
10474;BME280;5284;50.446;7.904;2023-03-13T03:54:44;97245.53;;;8.56;100.00
10474;BME280;5284;50.446;7.904;2023-03-13T03:59:49;97235.03;;;8.55;100.00
10474;BME280;5284;50.446;7.904;2023-03-13T04:04:52;97236.03;;;8.54;100.00
10474;BME280;5284;50.446;7.904;2023-03-13T04:10:00;97237.41;;;8.58;100.00
10474;BME280;5284;50.446;7.904;2023-03-13T04:15:17;97233.06;;;8.57;100.00
10474;BME280;5284;50.446;7.904;2023-03-13T04:20:19;97210.44;;;8.53;100.00
10474;BME280;5284;50.446;7.904;2023-03-13T04:25:23;97188.22;;;8.54;100.00
10474;BME280;5284;50.446;7.904;2023-03-13T04:30:30;97220.47;;;8.59;100.00
10474;BME280;5284;50.446;7.904;2023-03-13T04:36:08;97209.69;;;8.60;100.00
10474;BME280;5284;50.446;7.904;2023-03-13T04:41:30;97193.00;;;8.85;100.00
10474;BME280;5284;50.446;7.904;2023-03-13T04:46:45;97192.00;;;8.86;100.00
10474;BME280;5284;50.446;7.904;2023-03-13T04:52:14;97188.75;;;8.92;100.00
10474;BME280;5284;50.446;7.904;2023-03-13T04:57:39;97150.34;;;8.95;100.00
10474;BME280;5284;50.446;7.904;2023-03-13T05:02:56;97135.25;;;8.95;100.00
10474;BME280;5284;50.446;7.904;2023-03-13T05:08:24;97132.13;;;9.00;100.00
10474;BME280;5284;50.446;7.904;2023-03-13T05:13:46;97152.00;;;9.13;100.00
10474;BME280;5284;50.446;7.904;2023-03-13T05:19:02;97160.19;;;9.19;100.00
10474;BME280;5284;50.446;7.904;2023-03-13T05:24:34;97151.91;;;9.22;100.00
10474;BME280;5284;50.446;7.904;2023-03-13T05:29:55;97139.75;;;9.45;100.00
10474;BME280;5284;50.446;7.904;2023-03-13T05:35:14;97124.81;;;9.52;100.00
10474;BME280;5284;50.446;7.904;2023-03-13T05:40:41;97111.03;;;9.57;100.00
10474;BME280;5284;50.446;7.904;2023-03-13T05:46:08;97107.84;;;9.87;100.00
10474;BME280;5284;50.446;7.904;2023-03-13T05:51:42;97092.50;;;9.81;100.00
10474;BME280;5284;50.446;7.904;2023-03-13T05:57:01;97098.94;;;10.12;100.00
10474;BME280;5284;50.446;7.904;2023-03-13T06:02:40;97101.66;;;10.44;100.00
10474;BME280;5284;50.446;7.904;2023-03-13T06:07:49;97089.72;;;10.56;100.00
10474;BME280;5284;50.446;7.904;2023-03-13T06:12:53;97088.53;;;10.74;100.00
10474;BME280;5284;50.446;7.904;2023-03-13T06:18:00;97101.88;;;10.74;100.00
10474;BME280;5284;50.446;7.904;2023-03-13T06:23:05;97090.69;;;10.86;100.00
10474;BME280;5284;50.446;7.904;2023-03-13T06:28:07;97104.84;;;11.11;100.00
10474;BME280;5284;50.446;7.904;2023-03-13T06:33:10;97098.66;;;11.18;100.00
10474;BME280;5284;50.446;7.904;2023-03-13T06:38:15;97107.63;;;11.33;100.00
10474;BME280;5284;50.446;7.904;2023-03-13T06:43:18;97153.34;;;11.38;100.00
10474;BME280;5284;50.446;7.904;2023-03-13T06:48:21;97137.28;;;11.46;100.00
10474;BME280;5284;50.446;7.904;2023-03-13T06:53:28;97133.78;;;11.54;100.00
10474;BME280;5284;50.446;7.904;2023-03-13T06:58:32;97144.66;;;11.60;100.00
10474;BME280;5284;50.446;7.904;2023-03-13T07:03:38;97142.81;;;11.61;100.00
10474;BME280;5284;50.446;7.904;2023-03-13T07:08:45;97118.38;;;11.72;100.00
10474;BME280;5284;50.446;7.904;2023-03-13T07:13:49;97101.03;;;11.76;100.00
10474;BME280;5284;50.446;7.904;2023-03-13T07:18:51;97123.06;;;11.78;100.00
10474;BME280;5284;50.446;7.904;2023-03-13T07:23:57;97119.31;;;11.95;100.00
10474;BME280;5284;50.446;7.904;2023-03-13T07:29:00;97128.84;;;11.97;100.00
10474;BME280;5284;50.446;7.904;2023-03-13T07:34:04;97134.78;;;12.07;100.00
10474;BME280;5284;50.446;7.904;2023-03-13T07:39:10;97127.13;;;12.04;100.00
10474;BME280;5284;50.446;7.904;2023-03-13T07:44:13;97130.09;;;12.09;100.00
10474;BME280;5284;50.446;7.904;2023-03-13T07:49:15;97136.94;;;12.12;100.00
10474;BME280;5284;50.446;7.904;2023-03-13T07:54:20;97131.38;;;12.21;100.00
10474;BME280;5284;50.446;7.904;2023-03-13T07:59:23;97129.25;;;12.17;100.00
10474;BME280;5284;50.446;7.904;2023-03-13T08:04:29;97141.09;;;12.14;100.00
10474;BME280;5284;50.446;7.904;2023-03-13T08:09:33;97149.16;;;12.06;100.00
10474;BME280;5284;50.446;7.904;2023-03-13T08:14:36;97147.16;;;12.08;100.00
10474;BME280;5284;50.446;7.904;2023-03-13T08:19:39;97142.16;;;12.05;100.00
10474;BME280;5284;50.446;7.904;2023-03-13T08:24:46;97140.63;;;12.11;100.00
10474;BME280;5284;50.446;7.904;2023-03-13T08:29:49;97141.06;;;12.22;100.00
10474;BME280;5284;50.446;7.904;2023-03-13T08:34:52;97129.50;;;12.60;100.00
10474;BME280;5284;50.446;7.904;2023-03-13T08:39:57;97127.84;;;12.73;100.00
10474;BME280;5284;50.446;7.904;2023-03-13T08:45:00;97128.06;;;12.72;100.00
10474;BME280;5284;50.446;7.904;2023-03-13T08:50:03;97115.13;;;12.75;100.00
10474;BME280;5284;50.446;7.904;2023-03-13T08:55:09;97113.97;;;12.78;100.00
10474;BME280;5284;50.446;7.904;2023-03-13T09:00:14;97113.72;;;12.87;100.00
10474;BME280;5284;50.446;7.904;2023-03-13T09:05:18;97097.31;;;13.13;100.00
10474;BME280;5284;50.446;7.904;2023-03-13T09:10:25;97107.50;;;13.32;100.00
10474;BME280;5284;50.446;7.904;2023-03-13T09:15:29;97077.22;;;13.31;100.00
10474;BME280;5284;50.446;7.904;2023-03-13T09:20:34;97104.38;;;13.43;100.00
10474;BME280;5284;50.446;7.904;2023-03-13T09:25:38;97088.75;;;13.61;100.00
10474;BME280;5284;50.446;7.904;2023-03-13T09:30:42;97092.94;;;13.63;100.00
10474;BME280;5284;50.446;7.904;2023-03-13T09:35:45;97106.31;;;13.63;100.00
10474;BME280;5284;50.446;7.904;2023-03-13T09:40:54;97097.25;;;13.50;100.00
10474;BME280;5284;50.446;7.904;2023-03-13T09:46:12;97075.66;;;13.51;100.00
10474;BME280;5284;50.446;7.904;2023-03-13T09:51:21;97080.94;;;13.59;100.00
10474;BME280;5284;50.446;7.904;2023-03-13T09:56:30;97089.69;;;13.53;100.00
10474;BME280;5284;50.446;7.904;2023-03-13T10:01:37;97092.47;;;13.60;100.00
10474;BME280;5284;50.446;7.904;2023-03-13T10:06:46;97088.69;;;13.69;100.00
10474;BME280;5284;50.446;7.904;2023-03-13T10:11:56;97073.13;;;14.07;100.00
10474;BME280;5284;50.446;7.904;2023-03-13T10:17:06;97071.66;;;13.90;100.00
10474;BME280;5284;50.446;7.904;2023-03-13T10:22:16;97072.78;;;13.96;100.00
10474;BME280;5284;50.446;7.904;2023-03-13T10:27:23;97057.84;;;14.08;100.00
10474;BME280;5284;50.446;7.904;2023-03-13T10:32:26;97079.06;;;13.88;100.00
10474;BME280;5284;50.446;7.904;2023-03-13T10:37:31;97072.13;;;13.79;100.00
10474;BME280;5284;50.446;7.904;2023-03-13T10:42:46;97069.84;;;13.76;100.00
10474;BME280;5284;50.446;7.904;2023-03-13T10:47:53;97059.38;;;13.38;100.00
10474;BME280;5284;50.446;7.904;2023-03-13T10:52:56;97054.38;;;13.21;100.00
10474;BME280;5284;50.446;7.904;2023-03-13T10:58:04;97044.97;;;13.25;100.00
10474;BME280;5284;50.446;7.904;2023-03-13T11:03:14;97051.53;;;13.22;100.00
10474;BME280;5284;50.446;7.904;2023-03-13T11:08:21;97040.63;;;13.24;100.00
10474;BME280;5284;50.446;7.904;2023-03-13T11:13:29;97034.00;;;13.20;100.00
10474;BME280;5284;50.446;7.904;2023-03-13T11:18:41;97035.13;;;12.88;100.00
10474;BME280;5284;50.446;7.904;2023-03-13T11:23:53;97025.44;;;12.87;100.00
10474;BME280;5284;50.446;7.904;2023-03-13T11:29:08;97035.69;;;12.61;100.00
10474;BME280;5284;50.446;7.904;2023-03-13T11:34:20;97023.50;;;12.81;100.00
10474;BME280;5284;50.446;7.904;2023-03-13T11:39:42;97019.16;;;12.58;100.00
10474;BME280;5284;50.446;7.904;2023-03-13T11:44:59;96983.88;;;12.77;100.00
10474;BME280;5284;50.446;7.904;2023-03-13T11:50:23;96971.69;;;12.74;100.00
10474;BME280;5284;50.446;7.904;2023-03-13T11:55:38;96962.84;;;12.74;100.00
10474;BME280;5284;50.446;7.904;2023-03-13T12:00:51;96957.41;;;12.82;100.00
10474;BME280;5284;50.446;7.904;2023-03-13T12:05:58;96949.50;;;12.88;100.00
10474;BME280;5284;50.446;7.904;2023-03-13T12:11:11;96939.44;;;12.90;100.00
10474;BME280;5284;50.446;7.904;2023-03-13T12:16:19;96936.94;;;12.89;100.00
10474;BME280;5284;50.446;7.904;2023-03-13T12:21:27;96932.16;;;12.84;100.00
10474;BME280;5284;50.446;7.904;2023-03-13T12:26:37;96922.84;;;12.80;100.00
10474;BME280;5284;50.446;7.904;2023-03-13T12:31:48;96923.28;;;12.84;100.00
10474;BME280;5284;50.446;7.904;2023-03-13T12:36:56;96913.22;;;12.86;100.00
10474;BME280;5284;50.446;7.904;2023-03-13T12:42:12;96888.75;;;12.97;100.00
10474;BME280;5284;50.446;7.904;2023-03-13T12:47:25;96886.97;;;13.04;100.00
10474;BME280;5284;50.446;7.904;2023-03-13T12:52:41;96871.94;;;13.03;100.00
10474;BME280;5284;50.446;7.904;2023-03-13T12:58:12;96883.09;;;12.92;100.00
10474;BME280;5284;50.446;7.904;2023-03-13T13:03:25;96865.03;;;12.94;100.00
10474;BME280;5284;50.446;7.904;2023-03-13T13:08:35;96860.31;;;12.96;100.00
10474;BME280;5284;50.446;7.904;2023-03-13T13:13:38;96827.44;;;13.16;100.00
10474;BME280;5284;50.446;7.904;2023-03-13T13:18:43;96809.66;;;13.30;100.00
10474;BME280;5284;50.446;7.904;2023-03-13T13:23:48;96790.91;;;13.51;100.00
10474;BME280;5284;50.446;7.904;2023-03-13T13:28:59;96788.97;;;13.86;100.00
10474;BME280;5284;50.446;7.904;2023-03-13T13:34:04;96775.09;;;14.04;100.00
10474;BME280;5284;50.446;7.904;2023-03-13T13:39:34;96764.19;;;14.05;100.00
10474;BME280;5284;50.446;7.904;2023-03-13T13:44:57;96757.88;;;14.13;100.00
10474;BME280;5284;50.446;7.904;2023-03-13T13:50:16;96766.44;;;14.02;100.00
10474;BME280;5284;50.446;7.904;2023-03-13T13:55:41;96756.50;;;13.96;100.00
10474;BME280;5284;50.446;7.904;2023-03-13T14:00:49;96747.75;;;13.87;100.00
10474;BME280;5284;50.446;7.904;2023-03-13T14:06:00;96732.31;;;13.89;100.00
10474;BME280;5284;50.446;7.904;2023-03-13T14:11:13;96734.56;;;13.86;100.00
10474;BME280;5284;50.446;7.904;2023-03-13T14:16:25;96717.06;;;13.90;100.00
10474;BME280;5284;50.446;7.904;2023-03-13T14:21:30;96715.84;;;13.92;100.00
10474;BME280;5284;50.446;7.904;2023-03-13T14:26:42;96687.00;;;13.94;100.00
10474;BME280;5284;50.446;7.904;2023-03-13T14:31:51;96688.81;;;14.15;100.00
10474;BME280;5284;50.446;7.904;2023-03-13T14:36:59;96644.38;;;14.33;100.00
10474;BME280;5284;50.446;7.904;2023-03-13T14:42:18;96637.97;;;14.41;100.00
10474;BME280;5284;50.446;7.904;2023-03-13T14:47:24;96640.28;;;14.50;100.00
10474;BME280;5284;50.446;7.904;2023-03-13T14:52:32;96618.59;;;14.39;100.00
10474;BME280;5284;50.446;7.904;2023-03-13T14:58:01;96616.94;;;14.38;100.00
10474;BME280;5284;50.446;7.904;2023-03-13T15:03:29;96617.69;;;14.25;100.00
10474;BME280;5284;50.446;7.904;2023-03-13T15:08:36;96608.00;;;14.24;100.00
10474;BME280;5284;50.446;7.904;2023-03-13T15:13:41;96582.88;;;14.32;100.00
10474;BME280;5284;50.446;7.904;2023-03-13T15:18:47;96580.41;;;14.30;100.00
10474;BME280;5284;50.446;7.904;2023-03-13T15:23:57;96570.53;;;14.37;100.00
10474;BME280;5284;50.446;7.904;2023-03-13T15:29:03;96558.97;;;14.43;100.00
10474;BME280;5284;50.446;7.904;2023-03-13T15:34:10;96556.72;;;14.47;100.00
10474;BME280;5284;50.446;7.904;2023-03-13T15:39:17;96556.91;;;14.45;100.00
10474;BME280;5284;50.446;7.904;2023-03-13T15:44:22;96564.16;;;14.51;100.00
10474;BME280;5284;50.446;7.904;2023-03-13T15:49:28;96533.44;;;14.73;100.00
10474;BME280;5284;50.446;7.904;2023-03-13T15:54:33;96519.00;;;15.13;100.00
10474;BME280;5284;50.446;7.904;2023-03-13T15:59:55;96509.25;;;15.44;100.00
10474;BME280;5284;50.446;7.904;2023-03-13T16:04:58;96468.34;;;15.42;100.00
10474;BME280;5284;50.446;7.904;2023-03-13T16:10:03;96457.59;;;15.42;100.00
10474;BME280;5284;50.446;7.904;2023-03-13T16:15:07;96449.53;;;15.49;100.00
10474;BME280;5284;50.446;7.904;2023-03-13T16:20:14;96442.94;;;15.45;100.00
10474;BME280;5284;50.446;7.904;2023-03-13T16:25:18;96429.31;;;15.40;100.00
10474;BME280;5284;50.446;7.904;2023-03-13T16:30:24;96426.44;;;15.22;100.00
10474;BME280;5284;50.446;7.904;2023-03-13T16:35:28;96433.25;;;15.18;100.00
10474;BME280;5284;50.446;7.904;2023-03-13T16:40:33;96409.38;;;14.97;100.00
10474;BME280;5284;50.446;7.904;2023-03-13T16:45:36;96402.13;;;14.98;100.00
10474;BME280;5284;50.446;7.904;2023-03-13T16:50:41;96401.94;;;14.86;100.00
10474;BME280;5284;50.446;7.904;2023-03-13T16:55:48;96419.50;;;14.63;100.00
10474;BME280;5284;50.446;7.904;2023-03-13T17:00:51;96435.00;;;14.48;100.00
10474;BME280;5284;50.446;7.904;2023-03-13T17:06:13;96436.03;;;14.40;100.00
10474;BME280;5284;50.446;7.904;2023-03-13T17:11:19;96432.50;;;14.27;100.00
10474;BME280;5284;50.446;7.904;2023-03-13T17:16:28;96444.00;;;14.14;100.00
10474;BME280;5284;50.446;7.904;2023-03-13T17:21:33;96459.03;;;14.09;100.00
10474;BME280;5284;50.446;7.904;2023-03-13T17:26:38;96451.41;;;13.99;100.00
10474;BME280;5284;50.446;7.904;2023-03-13T17:31:42;96445.78;;;13.94;100.00
10474;BME280;5284;50.446;7.904;2023-03-13T17:36:45;96417.97;;;13.89;100.00
10474;BME280;5284;50.446;7.904;2023-03-13T17:41:50;96435.09;;;14.01;100.00
10474;BME280;5284;50.446;7.904;2023-03-13T17:46:54;96429.53;;;13.96;100.00
10474;BME280;5284;50.446;7.904;2023-03-13T17:51:57;96366.66;;;13.98;100.00
10474;BME280;5284;50.446;7.904;2023-03-13T17:57:09;96377.16;;;13.87;100.00
10474;BME280;5284;50.446;7.904;2023-03-13T18:02:15;96389.50;;;13.81;100.00
10474;BME280;5284;50.446;7.904;2023-03-13T18:07:22;96389.06;;;13.72;100.00
10474;BME280;5284;50.446;7.904;2023-03-13T18:12:29;96382.66;;;13.66;100.00
10474;BME280;5284;50.446;7.904;2023-03-13T18:17:31;96355.03;;;13.59;100.00
10474;BME280;5284;50.446;7.904;2023-03-13T18:22:34;96356.06;;;13.58;100.00
10474;BME280;5284;50.446;7.904;2023-03-13T18:27:39;96342.25;;;13.48;100.00
10474;BME280;5284;50.446;7.904;2023-03-13T18:32:42;96355.59;;;13.42;100.00
10474;BME280;5284;50.446;7.904;2023-03-13T18:37:47;96423.34;;;13.36;100.00
10474;BME280;5284;50.446;7.904;2023-03-13T18:42:51;96418.03;;;13.49;100.00
10474;BME280;5284;50.446;7.904;2023-03-13T18:47:54;96404.00;;;13.40;100.00
10474;BME280;5284;50.446;7.904;2023-03-13T18:52:58;96383.41;;;13.41;100.00
10474;BME280;5284;50.446;7.904;2023-03-13T18:58:02;96375.56;;;13.39;100.00
10474;BME280;5284;50.446;7.904;2023-03-13T19:03:05;96349.00;;;13.38;100.00
10474;BME280;5284;50.446;7.904;2023-03-13T19:08:09;96293.56;;;13.25;100.00
10474;BME280;5284;50.446;7.904;2023-03-13T19:13:13;96323.03;;;13.25;100.00
10474;BME280;5284;50.446;7.904;2023-03-13T19:18:16;96327.31;;;13.13;100.00
10474;BME280;5284;50.446;7.904;2023-03-13T19:23:19;96329.78;;;13.15;100.00
10474;BME280;5284;50.446;7.904;2023-03-13T19:28:23;96331.38;;;13.09;100.00
10474;BME280;5284;50.446;7.904;2023-03-13T19:33:26;96302.97;;;13.02;100.00
10474;BME280;5284;50.446;7.904;2023-03-13T19:38:30;96290.34;;;12.89;100.00
10474;BME280;5284;50.446;7.904;2023-03-13T19:43:35;96308.22;;;12.82;100.00
10474;BME280;5284;50.446;7.904;2023-03-13T19:48:38;96325.06;;;12.76;100.00
10474;BME280;5284;50.446;7.904;2023-03-13T19:53:41;96285.88;;;12.62;100.00
10474;BME280;5284;50.446;7.904;2023-03-13T19:58:47;96341.34;;;12.47;100.00
10474;BME280;5284;50.446;7.904;2023-03-13T20:03:50;96349.13;;;12.42;100.00
10474;BME280;5284;50.446;7.904;2023-03-13T20:08:54;96318.16;;;12.27;99.24
10474;BME280;5284;50.446;7.904;2023-03-13T20:13:59;96303.91;;;12.20;98.55
10474;BME280;5284;50.446;7.904;2023-03-13T20:19:03;96303.19;;;12.05;100.00
10474;BME280;5284;50.446;7.904;2023-03-13T20:24:06;96284.59;;;11.91;100.00
10474;BME280;5284;50.446;7.904;2023-03-13T20:29:11;96268.34;;;11.86;100.00
10474;BME280;5284;50.446;7.904;2023-03-13T20:34:14;96309.09;;;11.73;100.00
10474;BME280;5284;50.446;7.904;2023-03-13T20:39:17;96317.63;;;11.62;100.00
10474;BME280;5284;50.446;7.904;2023-03-13T20:44:22;96331.06;;;11.54;100.00
10474;BME280;5284;50.446;7.904;2023-03-13T20:49:26;96327.41;;;11.55;100.00
10474;BME280;5284;50.446;7.904;2023-03-13T20:54:29;96321.59;;;11.52;100.00
10474;BME280;5284;50.446;7.904;2023-03-13T20:59:33;96317.03;;;11.46;100.00
10474;BME280;5284;50.446;7.904;2023-03-13T21:04:36;96285.69;;;11.33;100.00
10474;BME280;5284;50.446;7.904;2023-03-13T21:09:39;96245.41;;;11.28;100.00
10474;BME280;5284;50.446;7.904;2023-03-13T21:14:43;96254.75;;;11.18;100.00
10474;BME280;5284;50.446;7.904;2023-03-13T21:19:47;96250.34;;;11.10;100.00
10474;BME280;5284;50.446;7.904;2023-03-13T21:24:50;96256.97;;;10.93;100.00
10474;BME280;5284;50.446;7.904;2023-03-13T21:29:54;96284.34;;;10.87;100.00
10474;BME280;5284;50.446;7.904;2023-03-13T21:34:57;96315.28;;;10.67;100.00
10474;BME280;5284;50.446;7.904;2023-03-13T21:40:01;96337.16;;;10.63;100.00
10474;BME280;5284;50.446;7.904;2023-03-13T21:45:09;96337.34;;;10.62;100.00
10474;BME280;5284;50.446;7.904;2023-03-13T21:50:12;96354.38;;;10.61;100.00
10474;BME280;5284;50.446;7.904;2023-03-13T21:55:15;96336.25;;;10.70;100.00
10474;BME280;5284;50.446;7.904;2023-03-13T22:00:21;96345.78;;;10.65;100.00
10474;BME280;5284;50.446;7.904;2023-03-13T22:05:24;96346.53;;;10.73;100.00
10474;BME280;5284;50.446;7.904;2023-03-13T22:10:27;96370.78;;;10.78;100.00
10474;BME280;5284;50.446;7.904;2023-03-13T22:15:31;96366.75;;;10.82;100.00
10474;BME280;5284;50.446;7.904;2023-03-13T22:20:34;96343.97;;;10.80;100.00
10474;BME280;5284;50.446;7.904;2023-03-13T22:25:37;96355.91;;;10.84;100.00
10474;BME280;5284;50.446;7.904;2023-03-13T22:30:42;96364.00;;;10.76;100.00
10474;BME280;5284;50.446;7.904;2023-03-13T22:35:48;96373.47;;;10.78;100.00
10474;BME280;5284;50.446;7.904;2023-03-13T22:40:57;96375.47;;;10.76;100.00
10474;BME280;5284;50.446;7.904;2023-03-13T22:46:01;96365.84;;;10.75;100.00
10474;BME280;5284;50.446;7.904;2023-03-13T22:51:07;96361.88;;;10.71;100.00
10474;BME280;5284;50.446;7.904;2023-03-13T22:56:11;96334.50;;;10.63;100.00
10474;BME280;5284;50.446;7.904;2023-03-13T23:01:16;96313.75;;;10.59;100.00
10474;BME280;5284;50.446;7.904;2023-03-13T23:06:21;96295.78;;;10.67;100.00
10474;BME280;5284;50.446;7.904;2023-03-13T23:11:24;96299.38;;;10.74;100.00
10474;BME280;5284;50.446;7.904;2023-03-13T23:16:29;96307.28;;;10.67;100.00
10474;BME280;5284;50.446;7.904;2023-03-13T23:21:32;96302.69;;;10.76;100.00
10474;BME280;5284;50.446;7.904;2023-03-13T23:26:36;96317.97;;;10.67;100.00
10474;BME280;5284;50.446;7.904;2023-03-13T23:31:40;96317.47;;;10.78;100.00
10474;BME280;5284;50.446;7.904;2023-03-13T23:36:43;96296.16;;;10.78;100.00
10474;BME280;5284;50.446;7.904;2023-03-13T23:41:46;96320.50;;;10.75;100.00
10474;BME280;5284;50.446;7.904;2023-03-13T23:46:50;96326.97;;;10.66;100.00
10474;BME280;5284;50.446;7.904;2023-03-13T23:51:53;96339.38;;;10.74;100.00
10474;BME280;5284;50.446;7.904;2023-03-13T23:56:56;96329.53;;;10.74;100.00
